Startpagina
METAR-TAF:

METAR-TAF

Vliegvelden :

Albenga, Italië

breedte: 44-03N, lengte: 008-07E, hoogte: 45 m

Actueel weer

Dit bericht is 1 uur en het 2 minuten geleden gemaakt, om 15:50 UTC
Wind 10 kt uit het westnoordwesten
Temperatuur 23°C
Vochtigheid 78%
Druk 1010 hPa
Zicht 10 km of meer
Weinig wolken op 5000 ft

METAR: LIMG 261550Z 29010KT 9999 FEW050 23/19 Q1010 RETSRA

Tijdstip: 18:52 (16:52 UTC)


TAF: ontbreekt

Waarnemingen en weersverwachtingen van meer dan 4000 vliegvelden (METAR en TAF).

De beschikbare stations zijn de gele en rode punten op de kaart.

Ga met uw muis naar het station om de naam te zien.

Klik dan om waarnemingen en weersverwachtingen te zien.

kaart wijzigen: klik op de groene knoppen met een zwart kruis om in te zoomen, op de groene knop met een streepje om uit te zoomen of op de groene pijlen voor aangrenzende kaarten.


METAR-TAF: